sensor_id;sensor_type;location;lat;lon;timestamp;temperature;humidity
59572;DHT22;74587;45.880;11.484;2023-12-20T00:01:39;5.10;70.40
59572;DHT22;74587;45.880;11.484;2023-12-20T00:04:05;5.30;70.40
59572;DHT22;74587;45.880;11.484;2023-12-20T00:06:31;5.20;70.30
59572;DHT22;74587;45.880;11.484;2023-12-20T00:09:00;5.10;70.40
59572;DHT22;74587;45.880;11.484;2023-12-20T00:11:28;5.20;70.20
59572;DHT22;74587;45.880;11.484;2023-12-20T00:13:54;5.00;70.00
59572;DHT22;74587;45.880;11.484;2023-12-20T00:16:20;5.20;70.00
59572;DHT22;74587;45.880;11.484;2023-12-20T00:18:46;5.10;70.20
59572;DHT22;74587;45.880;11.484;2023-12-20T00:21:12;5.20;69.90
59572;DHT22;74587;45.880;11.484;2023-12-20T00:23:41;5.20;70.00
59572;DHT22;74587;45.880;11.484;2023-12-20T00:26:07;5.10;70.00
59572;DHT22;74587;45.880;11.484;2023-12-20T00:28:33;5.10;70.10
59572;DHT22;74587;45.880;11.484;2023-12-20T00:31:02;5.10;70.00
59572;DHT22;74587;45.880;11.484;2023-12-20T00:33:29;5.30;70.10
59572;DHT22;74587;45.880;11.484;2023-12-20T00:35:55;5.10;69.90
59572;DHT22;74587;45.880;11.484;2023-12-20T00:38:23;5.10;70.10
59572;DHT22;74587;45.880;11.484;2023-12-20T00:40:49;5.30;70.00
59572;DHT22;74587;45.880;11.484;2023-12-20T00:43:15;5.10;70.00
59572;DHT22;74587;45.880;11.484;2023-12-20T00:45:41;5.30;69.60
59572;DHT22;74587;45.880;11.484;2023-12-20T00:48:07;5.70;69.60
59572;DHT22;74587;45.880;11.484;2023-12-20T00:50:33;5.70;69.60
59572;DHT22;74587;45.880;11.484;2023-12-20T00:52:58;5.80;69.70
59572;DHT22;74587;45.880;11.484;2023-12-20T00:55:24;5.60;69.80
59572;DHT22;74587;45.880;11.484;2023-12-20T00:57:50;5.60;69.90
59572;DHT22;74587;45.880;11.484;2023-12-20T01:00:16;5.50;69.70
59572;DHT22;74587;45.880;11.484;2023-12-20T01:02:42;5.60;69.70
59572;DHT22;74587;45.880;11.484;2023-12-20T01:05:08;5.60;69.70
59572;DHT22;74587;45.880;11.484;2023-12-20T01:07:35;5.70;69.90
59572;DHT22;74587;45.880;11.484;2023-12-20T01:10:01;5.60;70.00
59572;DHT22;74587;45.880;11.484;2023-12-20T01:12:26;5.70;69.70
59572;DHT22;74587;45.880;11.484;2023-12-20T01:14:52;5.50;69.80
59572;DHT22;74587;45.880;11.484;2023-12-20T01:17:18;5.50;69.90
59572;DHT22;74587;45.880;11.484;2023-12-20T01:19:43;5.50;69.70
59572;DHT22;74587;45.880;11.484;2023-12-20T01:22:09;5.70;69.70
59572;DHT22;74587;45.880;11.484;2023-12-20T01:24:35;5.70;69.70
59572;DHT22;74587;45.880;11.484;2023-12-20T01:27:01;5.60;69.80
59572;DHT22;74587;45.880;11.484;2023-12-20T01:29:26;5.50;69.70
59572;DHT22;74587;45.880;11.484;2023-12-20T01:31:52;5.50;69.70
59572;DHT22;74587;45.880;11.484;2023-12-20T01:34:18;5.40;69.90
59572;DHT22;74587;45.880;11.484;2023-12-20T01:36:44;5.30;69.90
59572;DHT22;74587;45.880;11.484;2023-12-20T01:39:10;5.30;69.90
59572;DHT22;74587;45.880;11.484;2023-12-20T01:41:35;5.40;69.80
59572;DHT22;74587;45.880;11.484;2023-12-20T01:44:21;5.30;70.10
59572;DHT22;74587;45.880;11.484;2023-12-20T01:46:47;5.30;70.00
59572;DHT22;74587;45.880;11.484;2023-12-20T01:49:14;5.30;69.90
59572;DHT22;74587;45.880;11.484;2023-12-20T01:51:40;5.00;70.20
59572;DHT22;74587;45.880;11.484;2023-12-20T01:54:06;4.90;69.80
59572;DHT22;74587;45.880;11.484;2023-12-20T01:56:32;5.00;69.90
59572;DHT22;74587;45.880;11.484;2023-12-20T01:58:58;5.00;69.70
59572;DHT22;74587;45.880;11.484;2023-12-20T02:01:25;5.00;70.00
59572;DHT22;74587;45.880;11.484;2023-12-20T02:03:51;5.00;69.80
59572;DHT22;74587;45.880;11.484;2023-12-20T02:06:18;4.90;70.10
59572;DHT22;74587;45.880;11.484;2023-12-20T02:08:44;4.90;70.10
59572;DHT22;74587;45.880;11.484;2023-12-20T02:11:10;5.00;70.10
59572;DHT22;74587;45.880;11.484;2023-12-20T02:13:36;4.80;70.00
59572;DHT22;74587;45.880;11.484;2023-12-20T02:16:02;4.90;69.80
59572;DHT22;74587;45.880;11.484;2023-12-20T02:18:28;4.70;70.10
59572;DHT22;74587;45.880;11.484;2023-12-20T02:20:53;4.90;70.10
59572;DHT22;74587;45.880;11.484;2023-12-20T02:23:20;5.00;69.80
59572;DHT22;74587;45.880;11.484;2023-12-20T02:25:46;4.70;70.00
59572;DHT22;74587;45.880;11.484;2023-12-20T02:28:11;4.80;69.80
59572;DHT22;74587;45.880;11.484;2023-12-20T02:30:37;4.70;70.00
59572;DHT22;74587;45.880;11.484;2023-12-20T02:33:05;4.50;70.00
59572;DHT22;74587;45.880;11.484;2023-12-20T02:35:33;4.70;70.10
59572;DHT22;74587;45.880;11.484;2023-12-20T02:37:58;4.80;69.80
59572;DHT22;74587;45.880;11.484;2023-12-20T02:40:24;4.70;69.90
59572;DHT22;74587;45.880;11.484;2023-12-20T02:42:50;4.80;70.00
59572;DHT22;74587;45.880;11.484;2023-12-20T02:45:16;4.40;69.90
59572;DHT22;74587;45.880;11.484;2023-12-20T02:47:42;4.60;69.90
59572;DHT22;74587;45.880;11.484;2023-12-20T02:58:09;4.50;70.00
59572;DHT22;74587;45.880;11.484;2023-12-20T03:03:24;4.50;69.90
59572;DHT22;74587;45.880;11.484;2023-12-20T03:11:28;4.40;70.00
59572;DHT22;74587;45.880;11.484;2023-12-20T03:13:55;4.40;70.10
59572;DHT22;74587;45.880;11.484;2023-12-20T03:16:21;4.30;70.00
59572;DHT22;74587;45.880;11.484;2023-12-20T03:18:47;4.40;70.10
59572;DHT22;74587;45.880;11.484;2023-12-20T03:21:13;4.30;70.00
59572;DHT22;74587;45.880;11.484;2023-12-20T03:23:41;4.40;70.20
59572;DHT22;74587;45.880;11.484;2023-12-20T03:26:08;4.20;70.10
59572;DHT22;74587;45.880;11.484;2023-12-20T03:28:34;4.20;70.20
59572;DHT22;74587;45.880;11.484;2023-12-20T03:31:01;4.40;70.10
59572;DHT22;74587;45.880;11.484;2023-12-20T03:33:28;4.50;70.10
59572;DHT22;74587;45.880;11.484;2023-12-20T03:35:54;4.60;70.10
59572;DHT22;74587;45.880;11.484;2023-12-20T03:38:20;4.70;69.90
59572;DHT22;74587;45.880;11.484;2023-12-20T03:40:47;4.90;69.90
59572;DHT22;74587;45.880;11.484;2023-12-20T03:43:12;5.10;69.80
59572;DHT22;74587;45.880;11.484;2023-12-20T03:45:38;5.00;70.00
59572;DHT22;74587;45.880;11.484;2023-12-20T03:48:05;5.00;70.00
59572;DHT22;74587;45.880;11.484;2023-12-20T03:50:31;5.20;69.80
59572;DHT22;74587;45.880;11.484;2023-12-20T03:52:56;4.90;70.00
59572;DHT22;74587;45.880;11.484;2023-12-20T03:55:22;5.10;70.00
59572;DHT22;74587;45.880;11.484;2023-12-20T03:57:48;5.00;70.30
59572;DHT22;74587;45.880;11.484;2023-12-20T04:02:41;4.80;70.20
59572;DHT22;74587;45.880;11.484;2023-12-20T04:05:08;4.90;70.00
59572;DHT22;74587;45.880;11.484;2023-12-20T04:07:38;4.90;70.40
59572;DHT22;74587;45.880;11.484;2023-12-20T04:10:04;4.60;70.00
59572;DHT22;74587;45.880;11.484;2023-12-20T04:12:32;4.70;70.00
59572;DHT22;74587;45.880;11.484;2023-12-20T04:14:58;4.70;70.10
59572;DHT22;74587;45.880;11.484;2023-12-20T04:17:26;4.60;70.20
59572;DHT22;74587;45.880;11.484;2023-12-20T04:19:52;4.60;70.40
59572;DHT22;74587;45.880;11.484;2023-12-20T04:22:18;4.60;70.40
59572;DHT22;74587;45.880;11.484;2023-12-20T04:24:45;4.50;70.30
59572;DHT22;74587;45.880;11.484;2023-12-20T04:27:11;4.70;70.40
59572;DHT22;74587;45.880;11.484;2023-12-20T04:29:37;4.90;70.30
59572;DHT22;74587;45.880;11.484;2023-12-20T04:32:03;4.60;70.10
59572;DHT22;74587;45.880;11.484;2023-12-20T04:34:29;4.70;70.30
59572;DHT22;74587;45.880;11.484;2023-12-20T04:36:55;4.80;70.40
59572;DHT22;74587;45.880;11.484;2023-12-20T04:39:21;4.50;70.20
59572;DHT22;74587;45.880;11.484;2023-12-20T04:41:47;4.60;70.20
59572;DHT22;74587;45.880;11.484;2023-12-20T04:44:15;4.70;70.20
59572;DHT22;74587;45.880;11.484;2023-12-20T04:46:44;4.80;70.20
59572;DHT22;74587;45.880;11.484;2023-12-20T04:49:10;4.80;70.30
59572;DHT22;74587;45.880;11.484;2023-12-20T04:51:36;4.80;70.00
59572;DHT22;74587;45.880;11.484;2023-12-20T04:54:02;4.70;70.20
59572;DHT22;74587;45.880;11.484;2023-12-20T04:56:31;4.60;70.30
59572;DHT22;74587;45.880;11.484;2023-12-20T04:58:56;4.50;70.20
59572;DHT22;74587;45.880;11.484;2023-12-20T05:01:22;4.50;70.40
59572;DHT22;74587;45.880;11.484;2023-12-20T05:03:48;4.40;70.50
59572;DHT22;74587;45.880;11.484;2023-12-20T05:06:14;4.50;70.30
59572;DHT22;74587;45.880;11.484;2023-12-20T05:08:40;4.40;70.40
59572;DHT22;74587;45.880;11.484;2023-12-20T05:11:06;4.60;70.20
59572;DHT22;74587;45.880;11.484;2023-12-20T05:13:32;4.50;70.20
59572;DHT22;74587;45.880;11.484;2023-12-20T05:15:58;4.80;70.30
59572;DHT22;74587;45.880;11.484;2023-12-20T05:18:24;4.70;70.50
59572;DHT22;74587;45.880;11.484;2023-12-20T05:20:51;4.60;70.70
59572;DHT22;74587;45.880;11.484;2023-12-20T05:23:17;5.00;70.10
59572;DHT22;74587;45.880;11.484;2023-12-20T05:25:43;4.90;70.30
59572;DHT22;74587;45.880;11.484;2023-12-20T05:28:09;5.00;70.40
59572;DHT22;74587;45.880;11.484;2023-12-20T05:30:35;4.90;70.40
59572;DHT22;74587;45.880;11.484;2023-12-20T05:33:00;5.10;70.20
59572;DHT22;74587;45.880;11.484;2023-12-20T05:35:26;5.00;70.20
59572;DHT22;74587;45.880;11.484;2023-12-20T05:37:52;5.00;70.40
59572;DHT22;74587;45.880;11.484;2023-12-20T05:40:18;5.10;70.30
59572;DHT22;74587;45.880;11.484;2023-12-20T05:42:44;5.10;70.10
59572;DHT22;74587;45.880;11.484;2023-12-20T05:45:09;5.30;70.40
59572;DHT22;74587;45.880;11.484;2023-12-20T05:47:36;5.40;70.20
59572;DHT22;74587;45.880;11.484;2023-12-20T05:50:02;5.30;70.10
59572;DHT22;74587;45.880;11.484;2023-12-20T05:52:28;5.30;70.00
59572;DHT22;74587;45.880;11.484;2023-12-20T05:54:54;5.40;70.10
59572;DHT22;74587;45.880;11.484;2023-12-20T05:57:21;5.30;70.10
59572;DHT22;74587;45.880;11.484;2023-12-20T05:59:47;5.40;70.30
59572;DHT22;74587;45.880;11.484;2023-12-20T06:02:15;5.40;70.30
59572;DHT22;74587;45.880;11.484;2023-12-20T06:04:44;5.40;70.60
59572;DHT22;74587;45.880;11.484;2023-12-20T06:07:13;5.30;70.90
59572;DHT22;74587;45.880;11.484;2023-12-20T06:09:39;5.40;70.80
59572;DHT22;74587;45.880;11.484;2023-12-20T06:12:05;5.10;70.60
59572;DHT22;74587;45.880;11.484;2023-12-20T06:14:31;5.20;70.60
59572;DHT22;74587;45.880;11.484;2023-12-20T06:16:59;5.20;70.30
59572;DHT22;74587;45.880;11.484;2023-12-20T06:19:34;5.10;70.40
59572;DHT22;74587;45.880;11.484;2023-12-20T06:22:00;5.10;70.20
59572;DHT22;74587;45.880;11.484;2023-12-20T06:24:25;5.10;70.10
59572;DHT22;74587;45.880;11.484;2023-12-20T06:26:54;5.20;70.30
59572;DHT22;74587;45.880;11.484;2023-12-20T06:29:20;5.20;70.50
59572;DHT22;74587;45.880;11.484;2023-12-20T06:31:46;5.20;70.50
59572;DHT22;74587;45.880;11.484;2023-12-20T06:34:12;5.30;70.20
59572;DHT22;74587;45.880;11.484;2023-12-20T06:36:38;5.50;70.40
59572;DHT22;74587;45.880;11.484;2023-12-20T06:39:04;5.50;70.50
59572;DHT22;74587;45.880;11.484;2023-12-20T06:41:30;5.50;70.50
59572;DHT22;74587;45.880;11.484;2023-12-20T06:43:56;5.60;69.80
59572;DHT22;74587;45.880;11.484;2023-12-20T06:46:22;5.70;70.10
59572;DHT22;74587;45.880;11.484;2023-12-20T06:48:48;5.70;70.30
59572;DHT22;74587;45.880;11.484;2023-12-20T06:51:16;5.80;70.10
59572;DHT22;74587;45.880;11.484;2023-12-20T06:53:43;5.70;70.50
59572;DHT22;74587;45.880;11.484;2023-12-20T06:56:11;5.60;70.50
59572;DHT22;74587;45.880;11.484;2023-12-20T06:58:37;5.50;70.50
59572;DHT22;74587;45.880;11.484;2023-12-20T07:01:04;5.60;70.50
59572;DHT22;74587;45.880;11.484;2023-12-20T07:03:30;5.70;70.60
59572;DHT22;74587;45.880;11.484;2023-12-20T07:05:56;5.50;70.50
59572;DHT22;74587;45.880;11.484;2023-12-20T07:08:22;5.60;70.20
59572;DHT22;74587;45.880;11.484;2023-12-20T07:10:49;5.70;70.00
59572;DHT22;74587;45.880;11.484;2023-12-20T07:15:52;5.70;70.30
59572;DHT22;74587;45.880;11.484;2023-12-20T07:21:13;5.80;70.50
59572;DHT22;74587;45.880;11.484;2023-12-20T07:43:15;6.00;70.70
59572;DHT22;74587;45.880;11.484;2023-12-20T07:45:40;6.20;70.30
59572;DHT22;74587;45.880;11.484;2023-12-20T07:48:09;6.10;69.90
59572;DHT22;74587;45.880;11.484;2023-12-20T07:50:35;6.40;69.90
59572;DHT22;74587;45.880;11.484;2023-12-20T07:53:03;6.40;70.40
59572;DHT22;74587;45.880;11.484;2023-12-20T08:00:46;6.30;70.10
59572;DHT22;74587;45.880;11.484;2023-12-20T08:03:12;6.50;70.20
59572;DHT22;74587;45.880;11.484;2023-12-20T08:05:38;6.50;70.20
59572;DHT22;74587;45.880;11.484;2023-12-20T08:08:06;6.60;70.10
59572;DHT22;74587;45.880;11.484;2023-12-20T08:10:45;6.60;70.30
59572;DHT22;74587;45.880;11.484;2023-12-20T08:37:16;7.40;69.80
59572;DHT22;74587;45.880;11.484;2023-12-20T08:52:47;8.00;69.70
59572;DHT22;74587;45.880;11.484;2023-12-20T09:16:50;7.70;69.80
59572;DHT22;74587;45.880;11.484;2023-12-20T09:33:54;7.60;68.70
59572;DHT22;74587;45.880;11.484;2023-12-20T09:56:36;8.20;68.60
59572;DHT22;74587;45.880;11.484;2023-12-20T11:11:34;9.10;69.90
59572;DHT22;74587;45.880;11.484;2023-12-20T11:14:07;9.10;70.40
59572;DHT22;74587;45.880;11.484;2023-12-20T11:16:37;9.10;70.20
59572;DHT22;74587;45.880;11.484;2023-12-20T11:19:06;9.10;70.30
59572;DHT22;74587;45.880;11.484;2023-12-20T11:21:32;9.10;70.20
59572;DHT22;74587;45.880;11.484;2023-12-20T11:23:58;9.00;70.30
59572;DHT22;74587;45.880;11.484;2023-12-20T11:26:27;9.10;70.20
59572;DHT22;74587;45.880;11.484;2023-12-20T11:31:56;9.10;70.40
59572;DHT22;74587;45.880;11.484;2023-12-20T11:34:22;9.00;70.10
59572;DHT22;74587;45.880;11.484;2023-12-20T11:36:57;9.10;70.00
59572;DHT22;74587;45.880;11.484;2023-12-20T11:39:25;9.00;70.00
59572;DHT22;74587;45.880;11.484;2023-12-20T11:41:51;8.90;69.80
59572;DHT22;74587;45.880;11.484;2023-12-20T11:44:17;9.00;69.90
59572;DHT22;74587;45.880;11.484;2023-12-20T11:46:44;8.90;69.60
59572;DHT22;74587;45.880;11.484;2023-12-20T11:49:10;8.90;69.20
59572;DHT22;74587;45.880;11.484;2023-12-20T11:51:36;8.80;69.20
59572;DHT22;74587;45.880;11.484;2023-12-20T11:54:05;8.80;69.40
59572;DHT22;74587;45.880;11.484;2023-12-20T11:56:31;8.80;69.30
59572;DHT22;74587;45.880;11.484;2023-12-20T11:58:57;9.00;69.20
59572;DHT22;74587;45.880;11.484;2023-12-20T12:01:24;9.10;69.30
59572;DHT22;74587;45.880;11.484;2023-12-20T12:04:02;9.10;69.00
59572;DHT22;74587;45.880;11.484;2023-12-20T12:06:28;9.20;69.00
59572;DHT22;74587;45.880;11.484;2023-12-20T12:08:54;9.00;68.90
59572;DHT22;74587;45.880;11.484;2023-12-20T12:11:21;9.10;68.80
59572;DHT22;74587;45.880;11.484;2023-12-20T12:13:47;9.10;68.80
59572;DHT22;74587;45.880;11.484;2023-12-20T12:16:19;9.00;68.70
59572;DHT22;74587;45.880;11.484;2023-12-20T12:18:45;8.90;68.40
59572;DHT22;74587;45.880;11.484;2023-12-20T12:21:19;9.00;68.70
59572;DHT22;74587;45.880;11.484;2023-12-20T12:23:46;8.80;68.40
59572;DHT22;74587;45.880;11.484;2023-12-20T12:26:12;8.80;68.70
59572;DHT22;74587;45.880;11.484;2023-12-20T12:28:40;8.80;68.70
59572;DHT22;74587;45.880;11.484;2023-12-20T12:31:07;8.60;68.60
59572;DHT22;74587;45.880;11.484;2023-12-20T12:33:33;8.70;68.40
59572;DHT22;74587;45.880;11.484;2023-12-20T12:36:01;8.70;68.40
59572;DHT22;74587;45.880;11.484;2023-12-20T12:38:27;8.70;68.50
59572;DHT22;74587;45.880;11.484;2023-12-20T12:40:54;8.70;69.10
59572;DHT22;74587;45.880;11.484;2023-12-20T12:43:20;8.80;69.30
59572;DHT22;74587;45.880;11.484;2023-12-20T12:45:48;8.90;69.60
59572;DHT22;74587;45.880;11.484;2023-12-20T12:48:14;8.90;69.60
59572;DHT22;74587;45.880;11.484;2023-12-20T12:50:40;9.00;69.60
59572;DHT22;74587;45.880;11.484;2023-12-20T12:53:06;9.10;69.70
59572;DHT22;74587;45.880;11.484;2023-12-20T12:55:31;9.10;69.60
59572;DHT22;74587;45.880;11.484;2023-12-20T12:57:57;9.10;69.60
59572;DHT22;74587;45.880;11.484;2023-12-20T13:00:23;9.00;69.50
59572;DHT22;74587;45.880;11.484;2023-12-20T13:02:50;9.10;69.50
59572;DHT22;74587;45.880;11.484;2023-12-20T13:05:16;9.10;69.50
59572;DHT22;74587;45.880;11.484;2023-12-20T13:07:43;9.00;69.80
59572;DHT22;74587;45.880;11.484;2023-12-20T13:10:11;8.90;69.70
59572;DHT22;74587;45.880;11.484;2023-12-20T13:12:36;9.10;69.40
59572;DHT22;74587;45.880;11.484;2023-12-20T13:15:02;9.10;69.60
59572;DHT22;74587;45.880;11.484;2023-12-20T13:17:29;9.10;69.50
59572;DHT22;74587;45.880;11.484;2023-12-20T13:19:55;9.00;69.50
59572;DHT22;74587;45.880;11.484;2023-12-20T13:22:21;8.90;69.50
59572;DHT22;74587;45.880;11.484;2023-12-20T13:24:46;8.90;69.60
59572;DHT22;74587;45.880;11.484;2023-12-20T13:27:12;8.70;69.90
59572;DHT22;74587;45.880;11.484;2023-12-20T13:29:38;8.60;69.90
59572;DHT22;74587;45.880;11.484;2023-12-20T13:32:04;8.70;69.90
59572;DHT22;74587;45.880;11.484;2023-12-20T13:34:30;8.50;69.90
59572;DHT22;74587;45.880;11.484;2023-12-20T13:36:56;8.60;70.20
59572;DHT22;74587;45.880;11.484;2023-12-20T13:39:22;8.40;70.20
59572;DHT22;74587;45.880;11.484;2023-12-20T13:41:47;8.40;70.30
59572;DHT22;74587;45.880;11.484;2023-12-20T13:44:13;8.30;70.50
59572;DHT22;74587;45.880;11.484;2023-12-20T13:46:40;8.50;70.80
59572;DHT22;74587;45.880;11.484;2023-12-20T13:49:06;8.70;70.70
59572;DHT22;74587;45.880;11.484;2023-12-20T13:51:32;8.80;70.50
59572;DHT22;74587;45.880;11.484;2023-12-20T13:53:58;8.80;70.20
59572;DHT22;74587;45.880;11.484;2023-12-20T13:56:25;8.70;70.20
59572;DHT22;74587;45.880;11.484;2023-12-20T13:58:50;8.70;70.10
59572;DHT22;74587;45.880;11.484;2023-12-20T14:01:16;8.60;70.10
59572;DHT22;74587;45.880;11.484;2023-12-20T14:03:42;8.70;69.90
59572;DHT22;74587;45.880;11.484;2023-12-20T14:06:08;8.80;70.10
59572;DHT22;74587;45.880;11.484;2023-12-20T14:08:33;8.70;69.90
59572;DHT22;74587;45.880;11.484;2023-12-20T14:10:59;8.90;69.80
59572;DHT22;74587;45.880;11.484;2023-12-20T14:13:26;8.90;69.70
59572;DHT22;74587;45.880;11.484;2023-12-20T14:15:52;8.90;69.60
59572;DHT22;74587;45.880;11.484;2023-12-20T14:18:19;8.90;69.80
59572;DHT22;74587;45.880;11.484;2023-12-20T14:20:45;8.90;69.70
59572;DHT22;74587;45.880;11.484;2023-12-20T14:23:12;8.90;69.80
59572;DHT22;74587;45.880;11.484;2023-12-20T14:25:41;8.90;69.80
59572;DHT22;74587;45.880;11.484;2023-12-20T14:28:07;8.90;69.60
59572;DHT22;74587;45.880;11.484;2023-12-20T14:30:33;8.70;69.50
59572;DHT22;74587;45.880;11.484;2023-12-20T14:33:01;8.70;69.80
59572;DHT22;74587;45.880;11.484;2023-12-20T14:35:27;8.60;69.90
59572;DHT22;74587;45.880;11.484;2023-12-20T14:37:53;8.80;70.00
59572;DHT22;74587;45.880;11.484;2023-12-20T14:40:19;8.70;70.10
59572;DHT22;74587;45.880;11.484;2023-12-20T14:42:45;8.60;70.20
59572;DHT22;74587;45.880;11.484;2023-12-20T14:45:11;8.60;70.10
59572;DHT22;74587;45.880;11.484;2023-12-20T14:47:38;8.80;70.10
59572;DHT22;74587;45.880;11.484;2023-12-20T14:50:05;8.80;70.20
59572;DHT22;74587;45.880;11.484;2023-12-20T14:52:32;8.60;70.20
59572;DHT22;74587;45.880;11.484;2023-12-20T14:54:59;8.50;70.30
59572;DHT22;74587;45.880;11.484;2023-12-20T14:57:25;8.50;70.30
59572;DHT22;74587;45.880;11.484;2023-12-20T14:59:52;8.30;70.40
59572;DHT22;74587;45.880;11.484;2023-12-20T15:02:17;8.30;70.60
59572;DHT22;74587;45.880;11.484;2023-12-20T15:04:43;8.30;70.60
59572;DHT22;74587;45.880;11.484;2023-12-20T15:07:09;8.10;70.50
59572;DHT22;74587;45.880;11.484;2023-12-20T15:09:35;8.00;71.10
59572;DHT22;74587;45.880;11.484;2023-12-20T15:12:00;7.80;70.90
59572;DHT22;74587;45.880;11.484;2023-12-20T15:14:26;7.60;71.10
59572;DHT22;74587;45.880;11.484;2023-12-20T15:16:53;7.40;71.20
59572;DHT22;74587;45.880;11.484;2023-12-20T15:19:21;7.40;71.20
59572;DHT22;74587;45.880;11.484;2023-12-20T15:21:47;7.30;71.20
59572;DHT22;74587;45.880;11.484;2023-12-20T15:24:13;7.10;71.30
59572;DHT22;74587;45.880;11.484;2023-12-20T15:26:42;6.80;71.40
59572;DHT22;74587;45.880;11.484;2023-12-20T15:29:09;6.80;71.50
59572;DHT22;74587;45.880;11.484;2023-12-20T15:31:37;6.60;71.50
59572;DHT22;74587;45.880;11.484;2023-12-20T15:34:07;6.40;71.70
59572;DHT22;74587;45.880;11.484;2023-12-20T15:36:32;6.30;71.60
59572;DHT22;74587;45.880;11.484;2023-12-20T15:38:58;6.30;71.80
59572;DHT22;74587;45.880;11.484;2023-12-20T15:41:24;6.10;71.90
59572;DHT22;74587;45.880;11.484;2023-12-20T15:43:49;6.20;72.10
59572;DHT22;74587;45.880;11.484;2023-12-20T15:46:15;5.80;72.00
59572;DHT22;74587;45.880;11.484;2023-12-20T15:48:41;6.00;71.90
59572;DHT22;74587;45.880;11.484;2023-12-20T15:51:09;6.00;72.00
59572;DHT22;74587;45.880;11.484;2023-12-20T15:53:35;6.00;72.00
59572;DHT22;74587;45.880;11.484;2023-12-20T15:56:02;5.80;72.10
59572;DHT22;74587;45.880;11.484;2023-12-20T15:58:29;5.70;72.00
59572;DHT22;74587;45.880;11.484;2023-12-20T16:00:56;5.50;72.50
59572;DHT22;74587;45.880;11.484;2023-12-20T16:03:21;5.50;72.50
59572;DHT22;74587;45.880;11.484;2023-12-20T16:05:47;5.40;72.50
59572;DHT22;74587;45.880;11.484;2023-12-20T16:08:13;5.60;72.40
59572;DHT22;74587;45.880;11.484;2023-12-20T16:10:40;5.40;72.50
59572;DHT22;74587;45.880;11.484;2023-12-20T16:13:05;5.40;72.50
59572;DHT22;74587;45.880;11.484;2023-12-20T16:15:31;5.10;72.70
59572;DHT22;74587;45.880;11.484;2023-12-20T16:17:57;5.20;72.70
59572;DHT22;74587;45.880;11.484;2023-12-20T16:20:24;5.20;72.80
59572;DHT22;74587;45.880;11.484;2023-12-20T16:22:50;5.20;73.00
59572;DHT22;74587;45.880;11.484;2023-12-20T16:25:16;5.30;73.30
59572;DHT22;74587;45.880;11.484;2023-12-20T16:27:42;5.10;73.40
59572;DHT22;74587;45.880;11.484;2023-12-20T16:30:08;5.20;73.20
59572;DHT22;74587;45.880;11.484;2023-12-20T16:32:34;5.10;73.00
59572;DHT22;74587;45.880;11.484;2023-12-20T16:35:00;5.30;72.80
59572;DHT22;74587;45.880;11.484;2023-12-20T16:37:26;5.10;72.90
59572;DHT22;74587;45.880;11.484;2023-12-20T16:39:53;5.10;73.00
59572;DHT22;74587;45.880;11.484;2023-12-20T16:42:19;5.00;73.10
59572;DHT22;74587;45.880;11.484;2023-12-20T16:44:45;5.00;73.30
59572;DHT22;74587;45.880;11.484;2023-12-20T16:47:11;5.10;73.40
59572;DHT22;74587;45.880;11.484;2023-12-20T16:49:37;5.20;73.00
59572;DHT22;74587;45.880;11.484;2023-12-20T16:52:03;5.10;73.00
59572;DHT22;74587;45.880;11.484;2023-12-20T16:54:28;5.10;73.00
59572;DHT22;74587;45.880;11.484;2023-12-20T16:56:55;5.30;72.70
59572;DHT22;74587;45.880;11.484;2023-12-20T16:59:21;5.20;72.70
59572;DHT22;74587;45.880;11.484;2023-12-20T17:01:47;5.20;72.60
59572;DHT22;74587;45.880;11.484;2023-12-20T17:04:14;5.10;72.80
59572;DHT22;74587;45.880;11.484;2023-12-20T17:06:40;4.70;72.90
59572;DHT22;74587;45.880;11.484;2023-12-20T17:09:06;5.00;73.10
59572;DHT22;74587;45.880;11.484;2023-12-20T17:11:35;4.60;73.10
59572;DHT22;74587;45.880;11.484;2023-12-20T17:14:00;4.70;73.00
59572;DHT22;74587;45.880;11.484;2023-12-20T17:16:26;4.60;73.10
59572;DHT22;74587;45.880;11.484;2023-12-20T17:18:52;4.80;73.10
59572;DHT22;74587;45.880;11.484;2023-12-20T17:21:18;4.80;73.10
59572;DHT22;74587;45.880;11.484;2023-12-20T17:23:45;4.70;73.00
59572;DHT22;74587;45.880;11.484;2023-12-20T17:26:12;5.00;73.00
59572;DHT22;74587;45.880;11.484;2023-12-20T17:28:38;4.60;72.90
59572;DHT22;74587;45.880;11.484;2023-12-20T17:31:04;4.80;73.00
59572;DHT22;74587;45.880;11.484;2023-12-20T17:33:30;4.80;72.90
59572;DHT22;74587;45.880;11.484;2023-12-20T17:35:55;4.70;73.20
59572;DHT22;74587;45.880;11.484;2023-12-20T17:38:21;4.40;73.20
59572;DHT22;74587;45.880;11.484;2023-12-20T17:40:47;4.70;73.20
59572;DHT22;74587;45.880;11.484;2023-12-20T17:43:15;4.50;73.20
59572;DHT22;74587;45.880;11.484;2023-12-20T17:45:41;4.40;73.40
59572;DHT22;74587;45.880;11.484;2023-12-20T17:48:07;4.60;73.30
59572;DHT22;74587;45.880;11.484;2023-12-20T17:50:33;4.50;73.50
59572;DHT22;74587;45.880;11.484;2023-12-20T17:52:59;4.20;73.70
59572;DHT22;74587;45.880;11.484;2023-12-20T17:55:25;4.10;73.80
59572;DHT22;74587;45.880;11.484;2023-12-20T17:57:51;4.20;73.80
59572;DHT22;74587;45.880;11.484;2023-12-20T18:00:20;4.20;73.80
59572;DHT22;74587;45.880;11.484;2023-12-20T18:02:46;4.30;73.50
59572;DHT22;74587;45.880;11.484;2023-12-20T18:05:12;4.10;73.50
59572;DHT22;74587;45.880;11.484;2023-12-20T18:07:39;4.30;73.60
59572;DHT22;74587;45.880;11.484;2023-12-20T18:10:05;4.20;73.50
59572;DHT22;74587;45.880;11.484;2023-12-20T18:12:31;4.30;73.20
59572;DHT22;74587;45.880;11.484;2023-12-20T18:14:57;4.40;73.20
59572;DHT22;74587;45.880;11.484;2023-12-20T18:17:25;4.60;73.10
59572;DHT22;74587;45.880;11.484;2023-12-20T18:19:51;4.30;73.00
59572;DHT22;74587;45.880;11.484;2023-12-20T18:22:17;4.30;72.90
59572;DHT22;74587;45.880;11.484;2023-12-20T18:24:42;4.40;72.70
59572;DHT22;74587;45.880;11.484;2023-12-20T18:27:09;4.20;72.80
59572;DHT22;74587;45.880;11.484;2023-12-20T18:29:35;4.20;72.90
59572;DHT22;74587;45.880;11.484;2023-12-20T18:32:01;4.30;72.90
59572;DHT22;74587;45.880;11.484;2023-12-20T18:34:27;4.20;73.00
59572;DHT22;74587;45.880;11.484;2023-12-20T18:36:55;4.30;73.10
59572;DHT22;74587;45.880;11.484;2023-12-20T18:39:20;4.20;73.20
59572;DHT22;74587;45.880;11.484;2023-12-20T18:41:46;4.20;73.20
59572;DHT22;74587;45.880;11.484;2023-12-20T18:44:15;3.90;73.10
59572;DHT22;74587;45.880;11.484;2023-12-20T18:46:43;4.00;73.10
59572;DHT22;74587;45.880;11.484;2023-12-20T18:49:10;4.00;73.00
59572;DHT22;74587;45.880;11.484;2023-12-20T18:51:35;4.10;73.00
59572;DHT22;74587;45.880;11.484;2023-12-20T18:54:01;4.20;72.80
59572;DHT22;74587;45.880;11.484;2023-12-20T18:56:27;4.20;72.80
59572;DHT22;74587;45.880;11.484;2023-12-20T18:58:53;4.10;72.80
59572;DHT22;74587;45.880;11.484;2023-12-20T19:01:18;4.20;72.90
59572;DHT22;74587;45.880;11.484;2023-12-20T19:03:44;4.00;73.00